D Hanis, Texas
Current Conditions -  °F | °C
As of 1:51 PM on Friday 24 Oct 2014 (Local Time) from KHDO Reporting Station
Clear Clear  
Wind Chill: 27°   Ceiling: Unl
Heat Index: 27°   Visibility: 10mi
Dew Point: 14°   Wind: 6mph
Humidity: 45%   Direction: 220°SW
Pressure: 30.16"   Gusts: NA
Location:  29.3507°N, 99.3117°W
Report Text: KHDO 241851Z AUTO 22005KT 10SM CLR 27/14 A3016 RMK AO2 SLP200 T02720144
Loading
Personal Weather Stations






























Interactive Weather Map
Tropical Storm Tracking
New forecast layout! Learn more

10-Day Weather Forecast

Advertisements
Track Severe Weather on mobile